Time;durP1;ratioP1;P1;durP2;ratioP2;P2;SDS_P1;SDS_P2;PMS_P1;PMS_P2;Temp;Humidity;BMP_temperature;BMP_pressure;BME280_temperature;BME280_humidity;BME280_pressure;Samples;Min_cycle;Max_cycle;Signal;HPM_P1;HPM_P2
2023/02/10 00:01:23;;;;;;;10.05;7.65;;;31.00;94.90;;;;;;5006906;28;20041;-61
2023/02/10 00:03:50;;;;;;;12.18;8.80;;;31.30;96.30;;;;;;5009215;28;20460;-62
2023/02/10 00:06:19;;;;;;;10.48;6.70;;;31.30;93.40;;;;;;5007963;28;20458;-62
2023/02/10 00:08:55;;;;;;;8.52;6.28;;;31.40;94.30;;;;;;5004265;28;20029;-62
2023/02/10 00:14:09;;;;;;;7.95;6.10;;;31.80;92.00;;;;;;5007700;28;20522;-63
2023/02/10 00:16:36;;;;;;;7.68;6.03;;;31.70;91.70;;;;;;5007436;28;20204;-62
2023/02/10 00:19:04;;;;;;;8.07;6.15;;;31.70;91.30;;;;;;5011110;28;20452;-61
2023/02/10 00:21:31;;;;;;;7.53;6.18;;;31.80;91.60;;;;;;5010287;28;20145;-61
2023/02/10 00:23:58;;;;;;;7.30;5.45;;;32.00;90.40;;;;;;5004264;28;20026;-63
2023/02/10 00:26:26;;;;;;;6.75;6.05;;;32.00;89.40;;;;;;5004985;28;20026;-62
2023/02/10 00:28:53;;;;;;;9.60;5.70;;;31.80;86.50;;;;;;5006805;28;20018;-62
2023/02/10 00:31:21;;;;;;;7.28;5.65;;;31.80;91.80;;;;;;5009604;28;20049;-62
2023/02/10 00:33:49;;;;;;;9.32;6.38;;;32.00;90.10;;;;;;5004926;28;20385;-62
2023/02/10 00:36:16;;;;;;;9.13;5.55;;;31.90;89.40;;;;;;5007171;28;20527;-62
2023/02/10 00:38:44;;;;;;;4.80;4.15;;;32.20;87.00;;;;;;5009990;28;20072;-62
2023/02/10 00:41:16;;;;;;;12.18;5.88;;;32.30;87.30;;;;;;5006790;28;20040;-61
2023/02/10 00:43:44;;;;;;;7.93;4.85;;;32.30;87.90;;;;;;5012046;28;20022;-62
2023/02/10 00:46:17;;;;;;;7.00;5.05;;;32.60;89.20;;;;;;5015842;28;20034;-62
2023/02/10 00:48:45;;;;;;;6.00;4.67;;;32.80;87.00;;;;;;5023292;28;20021;-62
2023/02/10 00:51:13;;;;;;;5.10;4.60;;;32.90;85.80;;;;;;5014167;28;20125;-62
2023/02/10 00:53:41;;;;;;;7.63;5.35;;;33.00;81.40;;;;;;5011513;28;20552;-63
2023/02/10 00:56:09;;;;;;;13.45;5.90;;;33.00;76.60;;;;;;5020210;28;20029;-61
2023/02/10 00:58:37;;;;;;;6.22;4.53;;;33.10;79.60;;;;;;5023939;28;20092;-63
2023/02/10 01:01:05;;;;;;;5.63;4.60;;;32.70;73.60;;;;;;5012566;28;20434;-61
2023/02/10 01:03:33;;;;;;;6.50;5.28;;;32.80;78.50;;;;;;5024215;28;20025;-61
2023/02/10 01:06:01;;;;;;;8.50;4.68;;;32.90;81.00;;;;;;5009273;28;20490;-62
2023/02/10 01:08:28;;;;;;;9.18;4.53;;;33.00;79.20;;;;;;4991547;28;20025;-62
2023/02/10 01:11:01;;;;;;;8.43;5.00;;;33.10;83.30;;;;;;4990842;28;20048;-61
2023/02/10 01:13:29;;;;;;;9.57;5.03;;;33.20;75.80;;;;;;5017996;28;20542;-62
2023/02/10 01:15:57;;;;;;;5.10;3.85;;;33.30;78.50;;;;;;5023553;28;20037;-62
2023/02/10 01:18:24;;;;;;;6.47;3.80;;;33.40;73.60;;;;;;5013843;28;20030;-62
2023/02/10 01:20:51;;;;;;;12.20;5.90;;;33.30;74.80;;;;;;5016403;28;20037;-63
2023/02/10 01:23:19;;;;;;;7.97;4.68;;;33.20;74.80;;;;;;5009118;28;20042;-65
2023/02/10 01:25:47;;;;;;;7.32;4.63;;;33.20;78.10;;;;;;4995513;28;20022;-65
2023/02/10 01:28:17;;;;;;;8.70;4.65;;;33.40;76.10;;;;;;5001158;28;20018;-65
2023/02/10 01:30:44;;;;;;;7.45;4.47;;;33.80;77.90;;;;;;5002192;28;20026;-64
2023/02/10 01:33:12;;;;;;;8.38;4.60;;;33.80;71.00;;;;;;5007569;28;20030;-65
2023/02/10 01:35:39;;;;;;;6.35;4.95;;;33.40;69.10;;;;;;5008480;28;20497;-64
2023/02/10 01:38:06;;;;;;;7.65;4.28;;;33.50;71.90;;;;;;5007820;28;20225;-64
2023/02/10 01:40:34;;;;;;;5.38;3.47;;;33.70;72.60;;;;;;5010399;28;20026;-63
2023/02/10 01:43:01;;;;;;;5.65;2.97;;;33.60;67.90;;;;;;5012823;28;20441;-62
2023/02/10 01:45:36;;;;;;;4.80;3.40;;;33.60;72.10;;;;;;5006407;28;20021;-62
2023/02/10 01:48:06;;;;;;;5.53;3.67;;;33.90;69.70;;;;;;5005383;28;20045;-62
2023/02/10 01:50:45;;;;;;;7.45;3.72;;;33.90;67.80;;;;;;5003738;28;20038;-63
2023/02/10 01:53:13;;;;;;;9.70;4.28;;;33.70;66.30;;;;;;5004095;28;20141;-63
2023/02/10 01:55:44;;;;;;;5.22;3.75;;;33.80;66.80;;;;;;5014460;28;21773;-61
2023/02/10 01:58:15;;;;;;;5.10;3.50;;;33.70;68.10;;;;;;5017631;28;20048;-62
2023/02/10 02:00:42;;;;;;;6.13;3.17;;;33.40;63.80;;;;;;5008872;28;20033;-63
2023/02/10 02:03:09;;;;;;;5.88;3.30;;;32.60;66.20;;;;;;5013232;28;20024;-63
2023/02/10 02:05:41;;;;;;;7.45;3.58;;;32.60;67.50;;;;;;5015079;28;20462;-63
2023/02/10 02:08:08;;;;;;;6.60;2.83;;;32.70;67.70;;;;;;5013543;28;20025;-63
2023/02/10 02:10:46;;;;;;;6.32;2.75;;;32.90;64.20;;;;;;5013773;28;20040;-63
2023/02/10 02:13:21;;;;;;;7.43;3.83;;;33.00;65.10;;;;;;5017270;28;20014;-63
2023/02/10 02:16:00;;;;;;;6.78;3.03;;;33.40;63.90;;;;;;5012875;28;20061;-63
2023/02/10 02:18:33;;;;;;;5.10;3.30;;;33.20;63.60;;;;;;5010357;28;20560;-63
2023/02/10 02:21:26;;;;;;;6.05;3.05;;;33.20;63.50;;;;;;5006762;28;20041;-63
2023/02/10 02:24:09;;;;;;;8.38;3.20;;;32.90;61.10;;;;;;5012759;28;20029;-64
2023/02/10 02:27:20;;;;;;;3.10;2.30;;;32.60;62.30;;;;;;4988568;28;20118;-64
2023/02/10 02:30:22;;;;;;;5.28;2.60;;;32.70;62.60;;;;;;5006033;28;20041;-63
2023/02/10 02:33:02;;;;;;;4.90;2.30;;;33.10;59.50;;;;;;5006042;28;20026;-63
2023/02/10 02:35:39;;;;;;;3.28;2.00;;;33.20;61.90;;;;;;5006077;28;20369;-63
2023/02/10 02:38:06;;;;;;;5.63;2.65;;;33.20;58.90;;;;;;5005136;28;20325;-63
2023/02/10 02:40:34;;;;;;;4.35;2.53;;;33.40;64.70;;;;;;5005470;28;20033;-62
2023/02/10 02:43:02;;;;;;;5.57;2.15;;;33.10;57.70;;;;;;5000903;28;20128;-62
2023/02/10 02:46:07;;;;;;;2.95;1.55;;;33.00;55.90;;;;;;4990585;28;20321;-62
2023/02/10 02:48:48;;;;;;;5.93;2.60;;;32.50;56.20;;;;;;4942259;28;20039;-63
2023/02/10 02:51:16;;;;;;;4.75;3.00;;;32.70;62.40;;;;;;4947109;28;20082;-62
2023/02/10 02:54:07;;;;;;;5.25;2.63;;;33.10;61.20;;;;;;4982374;28;20041;-62
2023/02/10 02:56:47;;;;;;;3.95;1.83;;;33.60;62.70;;;;;;5000668;28;20022;-61
2023/02/10 02:59:32;;;;;;;5.78;2.25;;;33.90;55.00;;;;;;5002922;28;20038;-63
2023/02/10 03:02:12;;;;;;;2.60;1.85;;;33.80;56.10;;;;;;5004962;28;20034;-63
2023/02/10 03:04:41;;;;;;;4.65;1.73;;;33.00;54.50;;;;;;5007745;28;20483;-64
2023/02/10 03:07:09;;;;;;;4.05;1.80;;;32.50;55.70;;;;;;5009089;28;20105;-62
2023/02/10 03:09:37;;;;;;;5.47;1.98;;;32.60;56.20;;;;;;4999560;28;20030;-63
2023/02/10 03:12:05;;;;;;;7.90;2.40;;;32.80;56.10;;;;;;5014642;28;20080;-62
2023/02/10 03:14:32;;;;;;;5.47;2.67;;;32.90;57.60;;;;;;5012737;28;20046;-63
2023/02/10 03:16:59;;;;;;;4.63;2.17;;;33.00;56.70;;;;;;5008502;28;20026;-62
2023/02/10 03:19:27;;;;;;;10.68;2.53;;;33.40;58.50;;;;;;5007066;28;20030;-64
2023/02/10 03:21:54;;;;;;;4.13;2.40;;;33.60;56.10;;;;;;5016080;28;20034;-62
2023/02/10 03:24:22;;;;;;;4.50;2.10;;;33.60;55.80;;;;;;5004686;28;20132;-63
2023/02/10 03:26:49;;;;;;;4.93;2.20;;;34.00;58.20;;;;;;4992802;28;20029;-62
2023/02/10 03:29:17;;;;;;;4.68;2.28;;;34.60;55.50;;;;;;5019885;28;20105;-62
2023/02/10 03:31:45;;;;;;;4.25;1.85;;;35.00;58.30;;;;;;5018659;28;20041;-62
2023/02/10 03:34:12;;;;;;;3.38;1.80;;;35.40;56.40;;;;;;5010251;28;20447;-62
2023/02/10 03:36:40;;;;;;;3.70;1.95;;;35.80;55.00;;;;;;5015476;28;20091;-63
2023/02/10 03:39:07;;;;;;;3.08;1.90;;;35.80;53.50;;;;;;4990779;28;20055;-63
2023/02/10 03:41:34;;;;;;;3.30;2.08;;;35.90;51.10;;;;;;5028416;28;20104;-62
2023/02/10 03:44:02;;;;;;;2.80;1.88;;;36.00;55.80;;;;;;5012398;28;20033;-62
2023/02/10 03:46:29;;;;;;;3.03;1.83;;;36.10;56.10;;;;;;5011661;28;20117;-64
2023/02/10 03:48:56;;;;;;;2.88;1.73;;;36.40;55.50;;;;;;5009410;28;20029;-60
2023/02/10 03:51:24;;;;;;;3.42;2.08;;;36.70;54.30;;;;;;5025071;28;20495;-63
2023/02/10 03:53:51;;;;;;;5.03;1.73;;;36.80;53.30;;;;;;5012677;28;20022;-62
2023/02/10 03:56:18;;;;;;;5.63;1.83;;;36.90;52.70;;;;;;4991382;28;20125;-62
2023/02/10 03:58:45;;;;;;;3.83;1.90;;;36.60;51.80;;;;;;4994009;28;20029;-65
2023/02/10 04:01:17;;;;;;;7.80;2.03;;;36.80;53.00;;;;;;5018097;28;20033;-64
2023/02/10 04:03:45;;;;;;;2.95;1.88;;;36.70;52.40;;;;;;5009979;28;20357;-62
2023/02/10 04:06:12;;;;;;;12.82;2.13;;;36.50;52.60;;;;;;5010626;28;20065;-61
2023/02/10 04:08:40;;;;;;;3.20;2.10;;;36.40;52.40;;;;;;5008163;28;20014;-62
2023/02/10 04:11:09;;;;;;;7.05;1.98;;;36.80;51.10;;;;;;5004811;28;20034;-63
2023/02/10 04:13:37;;;;;;;8.35;1.58;;;36.80;52.20;;;;;;5010803;28;20053;-61
2023/02/10 04:16:10;;;;;;;8.68;1.80;;;36.80;50.20;;;;;;5008005;28;21986;-63
2023/02/10 04:18:38;;;;;;;3.37;1.90;;;36.50;50.10;;;;;;5010638;28;20065;-63
2023/02/10 04:21:07;;;;;;;4.82;1.98;;;36.20;48.80;;;;;;5014352;28;20612;-62
2023/02/10 04:23:35;;;;;;;3.30;2.42;;;35.80;50.60;;;;;;5013716;28;20036;-62
2023/02/10 04:26:03;;;;;;;4.72;1.90;;;35.70;52.10;;;;;;5016063;28;20025;-62
2023/02/10 04:28:30;;;;;;;4.05;1.70;;;35.60;49.20;;;;;;5007692;28;20057;-63
2023/02/10 04:31:00;;;;;;;8.60;2.10;;;35.30;52.50;;;;;;5008026;28;20442;-64
2023/02/10 04:33:27;;;;;;;3.65;2.10;;;35.40;51.00;;;;;;5007480;28;20631;-62
2023/02/10 04:35:56;;;;;;;3.53;1.73;;;35.70;53.50;;;;;;5008874;28;20044;-62
2023/02/10 04:38:24;;;;;;;6.07;2.13;;;35.70;51.80;;;;;;5008419;28;20026;-62
2023/02/10 04:40:51;;;;;;;3.97;1.90;;;35.80;52.40;;;;;;5007881;28;20029;-62
2023/02/10 04:43:19;;;;;;;4.07;1.60;;;35.80;51.40;;;;;;5007637;28;20026;-63
2023/02/10 04:45:46;;;;;;;8.85;2.38;;;35.60;49.90;;;;;;5013456;28;20117;-62
2023/02/10 04:48:14;;;;;;;6.00;1.92;;;35.70;52.70;;;;;;5018539;28;20025;-62
2023/02/10 04:50:42;;;;;;;2.55;1.77;;;35.80;53.80;;;;;;5017523;28;20042;-63
2023/02/10 04:53:10;;;;;;;4.82;2.10;;;36.00;51.80;;;;;;5008988;28;20034;-63
2023/02/10 04:55:38;;;;;;;4.03;1.75;;;36.20;51.50;;;;;;5009681;28;20056;-63
2023/02/10 04:58:06;;;;;;;2.30;1.70;;;36.00;49.00;;;;;;5011849;28;20029;-63
2023/02/10 05:00:34;;;;;;;2.50;1.75;;;35.90;49.90;;;;;;5015797;28;20394;-63
2023/02/10 05:03:01;;;;;;;2.95;1.75;;;35.90;49.30;;;;;;5013709;28;20753;-63
2023/02/10 05:05:28;;;;;;;2.33;1.55;;;35.90;50.90;;;;;;5003024;28;20022;-62
2023/02/10 05:07:56;;;;;;;6.00;2.13;;;36.10;51.40;;;;;;5009511;28;20523;-63
2023/02/10 05:10:23;;;;;;;4.55;1.77;;;36.10;48.80;;;;;;5013142;28;20566;-63
2023/02/10 05:12:51;;;;;;;6.18;2.30;;;36.20;50.00;;;;;;4995222;28;20387;-63
2023/02/10 05:15:18;;;;;;;3.88;1.73;;;36.20;49.60;;;;;;5015204;28;20052;-63
2023/02/10 05:17:46;;;;;;;4.00;1.90;;;35.70;48.60;;;;;;5014207;28;20115;-64
2023/02/10 05:20:13;;;;;;;5.80;2.15;;;35.40;50.10;;;;;;5018216;28;20049;-62
2023/02/10 05:22:41;;;;;;;2.95;1.92;;;34.90;49.70;;;;;;5016202;28;20037;-64
2023/02/10 05:25:09;;;;;;;2.85;1.80;;;34.20;50.10;;;;;;5009402;28;20395;-63
2023/02/10 05:27:36;;;;;;;4.18;2.03;;;33.80;50.50;;;;;;5009031;28;20060;-63
2023/02/10 05:30:06;;;;;;;3.70;2.00;;;33.60;51.90;;;;;;5015362;28;20040;-63
2023/02/10 05:32:34;;;;;;;5.90;2.75;;;33.70;51.30;;;;;;5014990;28;20545;-63
2023/02/10 05:35:01;;;;;;;2.65;1.60;;;33.60;51.00;;;;;;5011716;28;20036;-63
2023/02/10 05:37:28;;;;;;;5.03;2.10;;;33.50;51.60;;;;;;5017380;28;20021;-63
2023/02/10 05:39:56;;;;;;;3.40;1.73;;;33.80;53.50;;;;;;5008322;28;20497;-63
2023/02/10 05:42:23;;;;;;;4.22;2.05;;;33.90;51.80;;;;;;5011633;28;20487;-63
2023/02/10 05:44:50;;;;;;;4.20;1.85;;;34.00;51.20;;;;;;5009092;28;20033;-64
2023/02/10 05:47:18;;;;;;;6.47;2.30;;;34.10;51.80;;;;;;5011417;28;20029;-64
2023/02/10 05:49:45;;;;;;;4.93;1.88;;;34.20;50.60;;;;;;5013219;28;20087;-65
2023/02/10 05:52:13;;;;;;;3.53;2.03;;;34.30;51.00;;;;;;5015409;28;20032;-63
2023/02/10 05:54:40;;;;;;;5.00;1.60;;;34.10;50.60;;;;;;5012030;28;20026;-65
2023/02/10 05:57:08;;;;;;;5.40;1.90;;;33.90;50.60;;;;;;5022531;28;20031;-63
2023/02/10 05:59:35;;;;;;;6.28;2.10;;;33.80;50.30;;;;;;5012369;28;20198;-64
2023/02/10 06:02:03;;;;;;;3.13;1.90;;;33.70;51.30;;;;;;5022689;28;20032;-63
2023/02/10 06:04:30;;;;;;;3.10;2.08;;;33.70;51.00;;;;;;5010677;28;20493;-62
2023/02/10 06:06:57;;;;;;;5.35;1.80;;;33.70;51.00;;;;;;5016474;28;20065;-62
2023/02/10 06:09:27;;;;;;;2.70;1.90;;;33.60;49.90;;;;;;5009179;28;20025;-62
2023/02/10 06:11:54;;;;;;;3.53;1.63;;;33.60;51.30;;;;;;5012266;28;20033;-62
2023/02/10 06:14:22;;;;;;;5.25;1.92;;;33.60;51.60;;;;;;5014496;28;20050;-64
2023/02/10 06:16:50;;;;;;;5.00;1.67;;;33.60;50.10;;;;;;5010199;28;20029;-62
2023/02/10 06:19:17;;;;;;;3.17;1.77;;;33.60;49.80;;;;;;5014626;28;20113;-63
2023/02/10 06:21:44;;;;;;;8.30;2.10;;;33.60;52.00;;;;;;4995414;28;20030;-64
2023/02/10 06:24:12;;;;;;;3.47;2.00;;;33.70;51.80;;;;;;5016789;28;20029;-61
2023/02/10 06:26:39;;;;;;;5.90;2.13;;;33.50;50.80;;;;;;5010877;28;20092;-62
2023/02/10 06:29:07;;;;;;;4.82;1.60;;;33.60;52.00;;;;;;5011692;28;20041;-61
2023/02/10 06:31:34;;;;;;;3.63;1.98;;;33.60;52.60;;;;;;5009196;28;20034;-61
2023/02/10 06:34:01;;;;;;;5.07;2.10;;;33.70;51.90;;;;;;5015587;28;20711;-62
2023/02/10 06:36:28;;;;;;;3.58;1.92;;;33.90;53.40;;;;;;5020769;28;20368;-62
2023/02/10 06:38:56;;;;;;;3.00;2.03;;;34.10;52.10;;;;;;5005098;28;20080;-62
2023/02/10 06:41:23;;;;;;;4.68;2.15;;;34.30;50.40;;;;;;5016448;28;20038;-62
2023/02/10 06:43:50;;;;;;;6.45;2.05;;;34.40;50.80;;;;;;5011122;28;20018;-61
2023/02/10 06:46:18;;;;;;;3.70;1.50;;;34.30;49.50;;;;;;5024942;28;20080;-61
2023/02/10 06:48:45;;;;;;;4.63;2.10;;;34.10;49.60;;;;;;4991055;28;20026;-62
2023/02/10 06:51:13;;;;;;;4.60;2.17;;;33.60;56.60;;;;;;5013539;28;20092;-62
2023/02/10 06:53:42;;;;;;;3.20;2.20;;;33.20;59.20;;;;;;5025363;28;20564;-62
2023/02/10 06:56:10;;;;;;;5.15;2.30;;;32.80;60.10;;;;;;4996055;28;20038;-62
2023/02/10 06:58:37;;;;;;;3.67;2.17;;;32.60;61.10;;;;;;5009023;28;20034;-64
2023/02/10 07:01:13;;;;;;;4.82;2.83;;;32.50;62.10;;;;;;5021470;28;20029;-63
2023/02/10 07:03:40;;;;;;;5.00;2.10;;;32.30;63.40;;;;;;5008471;28;20034;-61
2023/02/10 07:06:08;;;;;;;4.25;2.50;;;32.40;63.80;;;;;;5010149;28;20022;-64
2023/02/10 07:08:36;;;;;;;4.78;2.38;;;32.40;64.70;;;;;;5015946;28;20020;-61
2023/02/10 07:11:03;;;;;;;5.78;2.10;;;32.20;65.40;;;;;;5010813;28;20084;-62
2023/02/10 07:13:31;;;;;;;6.68;2.63;;;31.70;67.20;;;;;;5025111;28;20039;-61
2023/02/10 07:15:58;;;;;;;4.00;2.35;;;31.40;68.50;;;;;;4997225;28;20027;-63
2023/02/10 07:18:27;;;;;;;5.20;2.20;;;31.20;68.90;;;;;;5016581;28;20030;-63
2023/02/10 07:20:55;;;;;;;3.60;2.58;;;31.30;69.60;;;;;;5015725;28;20532;-63
2023/02/10 07:23:22;;;;;;;4.30;2.13;;;31.40;69.60;;;;;;4993683;28;20122;-63
2023/02/10 07:25:49;;;;;;;4.25;2.17;;;31.50;69.80;;;;;;5011364;28;20026;-62
2023/02/10 07:28:17;;;;;;;7.47;2.50;;;31.30;70.40;;;;;;5011385;28;20033;-62
2023/02/10 07:30:44;;;;;;;6.60;2.65;;;31.20;70.70;;;;;;5018138;28;20051;-63
2023/02/10 07:33:11;;;;;;;6.55;2.17;;;31.10;71.80;;;;;;5013165;28;20057;-63
2023/02/10 07:35:38;;;;;;;3.58;2.45;;;31.10;72.60;;;;;;5017504;28;20452;-63
2023/02/10 07:38:06;;;;;;;5.05;2.58;;;30.90;71.90;;;;;;5006279;28;20125;-61
2023/02/10 07:40:34;;;;;;;4.70;2.03;;;30.70;72.50;;;;;;5009243;28;20014;-61
2023/02/10 07:43:01;;;;;;;4.82;2.50;;;30.50;74.00;;;;;;5005855;28;20132;-61
2023/02/10 07:45:30;;;;;;;4.82;2.35;;;30.30;74.60;;;;;;5015629;28;20029;-62
2023/02/10 07:47:59;;;;;;;3.58;1.85;;;30.20;76.40;;;;;;5018023;28;20029;-61
2023/02/10 07:50:26;;;;;;;3.95;2.38;;;30.00;77.80;;;;;;4995618;28;20026;-62
2023/02/10 07:52:54;;;;;;;2.92;2.20;;;29.90;79.70;;;;;;5019105;28;20449;-62
2023/02/10 07:55:21;;;;;;;4.25;2.40;;;29.70;82.00;;;;;;5012528;28;20025;-62
2023/02/10 07:57:48;;;;;;;5.85;2.70;;;29.60;83.90;;;;;;5005882;28;20022;-62
2023/02/10 08:00:16;;;;;;;3.38;2.25;;;29.50;86.00;;;;;;5012230;28;20426;-65
2023/02/10 08:02:43;;;;;;;10.00;3.20;;;29.40;87.20;;;;;;5020079;28;20033;-62
2023/02/10 08:05:10;;;;;;;4.25;2.28;;;29.30;89.00;;;;;;5017860;28;20072;-62
2023/02/10 08:07:38;;;;;;;6.10;2.60;;;29.10;90.50;;;;;;5012704;28;20037;-62
2023/02/10 08:10:05;;;;;;;4.35;2.35;;;29.00;91.40;;;;;;5011259;28;20561;-63
2023/02/10 08:12:33;;;;;;;4.45;2.45;;;28.70;92.80;;;;;;5018049;28;20036;-64
2023/02/10 08:15:00;;;;;;;5.47;2.50;;;28.50;93.90;;;;;;5021377;28;20060;-63
2023/02/10 08:17:28;;;;;;;3.17;2.10;;;28.30;94.50;;;;;;5009500;28;20069;-63
2023/02/10 08:20:05;;;;;;;6.28;3.08;;;28.20;95.40;;;;;;5024100;28;20021;-62
2023/02/10 08:22:34;;;;;;;5.35;2.22;;;28.10;96.30;;;;;;5010609;28;20498;-64
2023/02/10 08:25:01;;;;;;;2.63;1.85;;;27.90;96.90;;;;;;5008578;28;20030;-62
2023/02/10 08:27:29;;;;;;;5.10;2.38;;;27.80;97.00;;;;;;5008944;28;20034;-63
2023/02/10 08:29:56;;;;;;;3.75;2.13;;;27.70;98.00;;;;;;5009880;28;20402;-63
2023/02/10 08:32:24;;;;;;;5.20;2.75;;;27.60;98.10;;;;;;4986576;28;20132;-62
2023/02/10 08:34:52;;;;;;;4.78;2.75;;;27.50;98.70;;;;;;5005822;28;20051;-62
2023/02/10 08:37:21;;;;;;;4.90;2.88;;;27.50;99.40;;;;;;5003666;28;20129;-62
2023/02/10 08:39:48;;;;;;;5.10;2.33;;;27.40;99.90;;;;;;5010362;28;20034;-61
2023/02/10 08:42:16;;;;;;;4.97;2.75;;;27.30;99.90;;;;;;5013510;28;20382;-62
2023/02/10 08:44:43;;;;;;;5.35;2.53;;;27.20;99.90;;;;;;5015700;28;20032;-62
2023/02/10 08:47:13;;;;;;;3.50;2.35;;;27.20;99.90;;;;;;5013953;28;20296;-64
2023/02/10 08:49:41;;;;;;;4.97;2.90;;;27.10;99.90;;;;;;5009311;28;20545;-64
2023/02/10 08:52:08;;;;;;;4.93;2.30;;;27.10;99.90;;;;;;5011961;28;20526;-63
2023/02/10 08:54:36;;;;;;;7.28;3.35;;;26.90;99.90;;;;;;5009221;28;20168;-64
2023/02/10 08:57:04;;;;;;;4.95;2.72;;;26.90;99.90;;;;;;5009072;28;20108;-64
2023/02/10 08:59:31;;;;;;;5.55;2.90;;;26.70;99.90;;;;;;4983466;28;20029;-66
2023/02/10 09:01:59;;;;;;;4.57;2.70;;;26.60;99.90;;;;;;5003956;28;20089;-67
2023/02/10 09:04:26;;;;;;;4.40;2.63;;;26.50;99.90;;;;;;4998142;28;20022;-62
2023/02/10 09:06:53;;;;;;;5.53;3.20;;;26.30;99.90;;;;;;5006479;28;20113;-66
2023/02/10 09:09:24;;;;;;;5.95;3.25;;;26.20;99.90;;;;;;5010696;28;20034;-66
2023/02/10 09:11:53;;;;;;;5.57;2.50;;;26.10;99.90;;;;;;4989099;28;20042;-65
2023/02/10 09:14:20;;;;;;;6.07;2.65;;;25.90;99.90;;;;;;5002563;28;20057;-67
2023/02/10 09:16:48;;;;;;;7.32;2.92;;;25.80;99.90;;;;;;5003222;28;20034;-65
2023/02/10 09:19:16;;;;;;;6.78;2.80;;;25.60;99.90;;;;;;5009760;28;20034;-65
2023/02/10 09:21:43;;;;;;;5.43;3.10;;;25.50;99.90;;;;;;5017306;28;20018;-65
2023/02/10 09:24:11;;;;;;;7.55;3.08;;;25.40;99.90;;;;;;5012302;28;20034;-63
2023/02/10 09:26:38;;;;;;;5.82;2.85;;;25.20;99.90;;;;;;5011035;28;20069;-62
2023/02/10 09:29:07;;;;;;;8.25;3.00;;;25.10;99.90;;;;;;5009787;28;20539;-62
2023/02/10 09:31:35;;;;;;;4.63;2.83;;;25.00;99.90;;;;;;5005891;28;20518;-63
2023/02/10 09:34:03;;;;;;;5.30;2.67;;;24.90;99.90;;;;;;5009011;28;20026;-63
2023/02/10 09:36:31;;;;;;;8.07;2.67;;;24.90;99.90;;;;;;5009388;28;20046;-61
2023/02/10 09:38:58;;;;;;;4.45;2.78;;;24.80;99.90;;;;;;5010131;28;21549;-61
2023/02/10 09:41:34;;;;;;;9.80;3.05;;;24.80;99.90;;;;;;5016943;28;20113;-62
2023/02/10 09:44:10;;;;;;;4.50;2.63;;;24.70;99.90;;;;;;5014732;28;20026;-61
2023/02/10 09:46:55;;;;;;;6.18;2.65;;;24.60;99.90;;;;;;5000489;28;20030;-61
2023/02/10 09:49:56;;;;;;;8.60;3.00;;;24.60;99.90;;;;;;5003503;28;20025;-61
2023/02/10 09:52:42;;;;;;;10.48;2.45;;;24.50;99.90;;;;;;5005568;28;20116;-62
2023/02/10 09:55:38;;;;;;;3.08;2.00;;;24.50;99.90;;;;;;4987787;28;20077;-60
2023/02/10 09:58:06;;;;;;;5.18;2.20;;;24.50;99.90;;;;;;5005301;28;20668;-61
2023/02/10 10:00:42;;;;;;;6.57;2.72;;;24.40;99.90;;;;;;5005648;28;20105;-62
2023/02/10 10:03:20;;;;;;;8.02;3.22;;;24.30;99.90;;;;;;5005374;28;20053;-61
2023/02/10 10:05:53;;;;;;;3.40;1.98;;;24.30;99.90;;;;;;5010391;28;20032;-62
2023/02/10 10:08:23;;;;;;;4.07;2.17;;;24.30;99.90;;;;;;5006233;28;20061;-64
2023/02/10 10:10:51;;;;;;;5.70;2.15;;;24.30;99.90;;;;;;5016100;28;20041;-62
2023/02/10 10:13:27;;;;;;;4.28;2.38;;;24.20;99.90;;;;;;5014458;28;20026;-61
2023/02/10 10:16:15;;;;;;;6.15;1.80;;;24.10;99.90;;;;;;5013285;28;20018;-63
2023/02/10 10:19:04;;;;;;;6.05;1.60;;;24.00;99.90;;;;;;5019369;28;20067;-61
2023/02/10 10:21:44;;;;;;;2.70;1.70;;;23.90;99.90;;;;;;5002370;28;20117;-62
2023/02/10 10:24:34;;;;;;;6.30;2.13;;;23.80;99.90;;;;;;5009771;28;20042;-61
2023/02/10 10:27:28;;;;;;;6.68;2.75;;;23.60;99.90;;;;;;5005395;28;20030;-59
2023/02/10 10:30:02;;;;;;;5.07;2.00;;;23.50;99.90;;;;;;5010955;28;20044;-62
2023/02/10 10:32:46;;;;;;;5.25;2.20;;;23.40;99.90;;;;;;5007037;28;20076;-60
2023/02/10 10:35:21;;;;;;;4.32;2.25;;;23.20;99.90;;;;;;5015061;28;20109;-60
2023/02/10 10:37:49;;;;;;;6.07;2.38;;;23.10;99.90;;;;;;4992960;28;20402;-60
2023/02/10 10:40:30;;;;;;;2.80;1.80;;;23.00;99.90;;;;;;4999238;28;20036;-60
2023/02/10 10:43:02;;;;;;;4.88;2.03;;;22.90;99.90;;;;;;5009614;28;20030;-60
2023/02/10 10:45:41;;;;;;;4.03;2.22;;;22.80;99.90;;;;;;5011925;28;20033;-63
2023/02/10 10:48:31;;;;;;;4.32;2.00;;;22.80;99.90;;;;;;5012995;28;20109;-62
2023/02/10 10:51:04;;;;;;;3.95;2.17;;;22.70;99.90;;;;;;5010974;28;20129;-60
2023/02/10 10:54:05;;;;;;;6.10;2.00;;;22.70;99.90;;;;;;5011619;28;20050;-61
2023/02/10 10:57:03;;;;;;;4.82;1.90;;;22.60;99.90;;;;;;4958569;28;20036;-62
2023/02/10 10:59:34;;;;;;;3.67;2.13;;;22.50;99.90;;;;;;5025283;28;20045;-62
2023/02/10 11:02:17;;;;;;;12.55;2.50;;;22.50;99.90;;;;;;4996619;28;20045;-61
2023/02/10 11:04:45;;;;;;;2.88;1.95;;;22.40;99.90;;;;;;5011540;28;20077;-61
2023/02/10 11:07:22;;;;;;;6.88;2.10;;;22.30;99.90;;;;;;5010035;28;20038;-63
2023/02/10 11:09:55;;;;;;;5.85;1.92;;;22.30;99.90;;;;;;5025529;28;20033;-64
2023/02/10 11:12:25;;;;;;;5.35;2.35;;;22.20;99.90;;;;;;5015758;28;20038;-63
2023/02/10 11:14:53;;;;;;;5.07;1.90;;;22.10;99.90;;;;;;5026825;28;20047;-63
2023/02/10 11:17:25;;;;;;;5.88;2.00;;;22.10;99.90;;;;;;5017359;28;20083;-62
2023/02/10 11:20:01;;;;;;;7.00;2.20;;;22.10;99.90;;;;;;5019155;28;20131;-63
2023/02/10 11:22:28;;;;;;;6.85;2.35;;;22.00;99.90;;;;;;5002706;28;20486;-62
2023/02/10 11:24:58;;;;;;;4.30;2.55;;;22.00;99.90;;;;;;5018746;28;20053;-62
2023/02/10 11:27:26;;;;;;;4.50;2.88;;;21.90;99.90;;;;;;5028413;28;20022;-61
2023/02/10 11:29:56;;;;;;;5.80;2.40;;;21.90;99.90;;;;;;4994775;28;20030;-64
2023/02/10 11:32:25;;;;;;;3.80;2.17;;;21.90;99.90;;;;;;5009708;28;20034;-64
2023/02/10 11:34:57;;;;;;;5.88;2.58;;;21.80;99.90;;;;;;5012086;28;20025;-63
2023/02/10 11:37:29;;;;;;;5.75;2.75;;;21.80;99.90;;;;;;5010304;28;20040;-63
2023/02/10 11:39:59;;;;;;;5.15;2.40;;;21.80;99.90;;;;;;5010192;28;20018;-65
2023/02/10 11:42:33;;;;;;;4.88;2.30;;;21.80;99.90;;;;;;5015524;28;20390;-63
2023/02/10 11:45:01;;;;;;;3.33;1.95;;;21.70;99.90;;;;;;5014444;28;20052;-64
2023/02/10 11:47:32;;;;;;;6.57;3.05;;;21.70;99.90;;;;;;5031415;28;20044;-64
2023/02/10 11:49:59;;;;;;;3.65;2.30;;;21.60;99.90;;;;;;5008835;28;20044;-63
2023/02/10 11:52:29;;;;;;;4.78;3.30;;;21.60;99.90;;;;;;5020764;28;20034;-63
2023/02/10 11:54:57;;;;;;;5.90;3.38;;;21.50;99.90;;;;;;5008572;28;20030;-63
2023/02/10 12:01:06;;;;;;;19.77;7.03;;;21.60;99.90;;;;;;5006905;28;20176;-65
2023/02/10 12:03:59;;;;;;;27.58;5.60;;;21.70;99.90;;;;;;4931850;29;20040;-63
2023/02/10 12:06:36;;;;;;;16.35;5.85;;;21.80;99.90;;;;;;4940888;29;20039;-64
2023/02/10 12:09:09;;;;;;;17.83;5.35;;;21.90;99.90;;;;;;5010172;28;20121;-65
2023/02/10 12:12:01;;;;;;;9.82;5.18;;;21.90;99.90;;;;;;5032011;28;20059;-65
2023/02/10 12:14:49;;;;;;;9.32;6.13;;;21.90;99.90;;;;;;5020083;28;20494;-65
2023/02/10 12:17:50;;;;;;;15.15;5.28;;;22.00;99.90;;;;;;5011851;28;20030;-66
2023/02/10 12:20:29;;;;;;;13.65;5.82;;;21.90;99.90;;;;;;5007973;28;20030;-67
2023/02/10 12:23:33;;;;;;;6.25;5.55;;;21.90;99.90;;;;;;5031674;28;20092;-66
2023/02/10 12:26:18;;;;;;;7.88;5.40;;;21.90;99.90;;;;;;5031852;28;20072;-65
2023/02/10 12:28:59;;;;;;;11.75;7.00;;;21.90;99.90;;;;;;5013657;28;20048;-66
2023/02/10 12:31:52;;;;;;;14.88;6.38;;;21.80;99.90;;;;;;5017240;28;20383;-67
2023/02/10 12:34:31;;;;;;;16.70;7.00;;;21.80;99.90;;;;;;5013549;28;20372;-67
2023/02/10 12:37:05;;;;;;;15.80;7.38;;;21.70;99.90;;;;;;5011769;28;20522;-66
2023/02/10 12:39:32;;;;;;;;;;;21.70;99.90;;;;;;5012062;28;20030;-64
2023/02/10 12:42:17;;;;;;;16.38;9.27;;;21.70;99.90;;;;;;5011262;28;19909;-62
2023/02/10 12:45:28;;;;;;;15.75;9.23;;;21.60;99.90;;;;;;5011532;28;20037;-65
2023/02/10 12:48:01;;;;;;;10.98;7.03;;;21.50;99.90;;;;;;4996046;28;20038;-65
2023/02/10 12:51:06;;;;;;;7.15;6.13;;;21.50;99.90;;;;;;5011196;28;20030;-65
2023/02/10 12:53:57;;;;;;;12.65;6.07;;;21.40;99.90;;;;;;5016498;28;20052;-64
2023/02/10 12:56:34;;;;;;;14.45;5.72;;;21.40;99.90;;;;;;5016683;28;20034;-66
2023/02/10 12:59:14;;;;;;;10.18;5.07;;;21.30;99.90;;;;;;5010930;28;20018;-67
2023/02/10 13:02:01;;;;;;;15.20;6.47;;;21.30;99.90;;;;;;5010595;28;20075;-65
2023/02/10 13:04:45;;;;;;;9.57;5.25;;;21.30;99.90;;;;;;5011882;28;20394;-65
2023/02/10 13:07:33;;;;;;;16.05;6.63;;;21.20;99.90;;;;;;5008811;28;20025;-64
2023/02/10 13:10:18;;;;;;;8.27;5.53;;;21.10;99.90;;;;;;5009680;28;20029;-65
2023/02/10 13:12:48;;;;;;;8.13;4.47;;;21.10;99.90;;;;;;5010956;28;20050;-63
2023/02/10 13:15:30;;;;;;;13.07;5.55;;;21.10;99.90;;;;;;5010436;28;20049;-65